Time;durP1;ratioP1;P1;durP2;ratioP2;P2;SDS_P1;SDS_P2;PMS_P1;PMS_P2;Temp;Humidity;BMP_temperature;BMP_pressure;BME280_temperature;BME280_humidity;BME280_pressure;Samples;Min_cycle;Max_cycle;Signal;HPM_P1;HPM_P2
2023/05/29 02:07:27;;;;;;;10.50;8.05;;;;;;;10.37;100.00;95136.94;4947759;23;20064;-84
2023/05/29 02:16:57;;;;;;;8.32;7.53;;;;;;;11.08;100.00;95271.63;4937695;29;20096;-85
2023/05/29 02:35:17;;;;;;;8.32;7.65;;;;;;;10.32;100.00;95224.63;4918871;24;20048;-84
2023/05/29 03:43:55;;;;;;;6.20;5.40;;;;;;;15.71;100.00;94706.53;4926665;28;20090;-88
2023/05/29 03:46:20;;;;;;;5.28;4.88;;;;;;;16.06;100.00;94663.34;4940939;29;20063;-89
2023/05/29 03:48:46;;;;;;;4.82;4.38;;;;;;;16.36;100.00;94619.09;4929042;29;20202;-85
2023/05/29 03:51:11;;;;;;;4.28;3.88;;;;;;;16.46;100.00;94613.38;4919347;29;20465;-86
2023/05/29 03:53:37;;;;;;;5.80;4.13;;;;;;;17.35;100.00;94653.72;4907590;29;20034;-80
2023/05/29 03:56:02;;;;;;;8.13;4.60;;;;;;;18.37;100.00;94602.09;4904631;29;20035;-78
2023/05/29 03:58:28;;;;;;;5.65;4.30;;;;;;;18.45;100.00;94588.66;4906814;29;20030;-78
2023/05/29 04:00:53;;;;;;;7.32;4.60;;;;;;;16.27;100.00;94621.19;4889030;29;20031;-79
2023/05/29 04:03:19;;;;;;;5.70;4.20;;;;;;;15.78;100.00;94689.84;4904398;29;20023;-78
2023/05/29 04:05:45;;;;;;;5.82;4.82;;;;;;;15.81;100.00;94709.50;4921519;29;20031;-79
2023/05/29 04:08:10;;;;;;;5.65;5.22;;;;;;;15.64;100.00;94716.19;4886476;29;20318;-80
2023/05/29 04:10:36;;;;;;;5.95;5.55;;;;;;;15.45;100.00;94750.97;4906514;29;20231;-80
2023/05/29 04:13:02;;;;;;;6.25;5.70;;;;;;;15.21;100.00;94795.00;4904182;29;20030;-78
2023/05/29 04:15:28;;;;;;;7.03;6.43;;;;;;;15.28;100.00;94808.81;4906758;29;20590;-78
2023/05/29 04:17:54;;;;;;;6.85;5.50;;;;;;;17.30;100.00;94768.78;4904496;29;20039;-78
2023/05/29 04:20:20;;;;;;;5.18;4.68;;;;;;;20.39;100.00;94616.66;4923303;29;20023;-78
2023/05/29 04:22:46;;;;;;;43.30;6.70;;;;;;;21.51;100.00;94611.91;4905992;29;20098;-77
2023/05/29 04:25:11;;;;;;;8.23;4.78;;;;;;;22.07;94.13;94605.38;4904559;29;20203;-78
2023/05/29 04:27:37;;;;;;;4.43;4.05;;;;;;;22.45;90.85;94597.25;4906101;29;20036;-79
2023/05/29 04:30:06;;;;;;;4.43;3.92;;;;;;;23.02;87.11;94596.59;4904009;29;20034;-78
2023/05/29 04:32:32;;;;;;;5.70;3.63;;;;;;;22.09;91.23;94584.81;4906331;29;20059;-79
2023/05/29 04:35:02;;;;;;;4.40;3.63;;;;;;;23.35;84.55;94595.41;4904548;29;20032;-79
2023/05/29 04:37:32;;;;;;;4.30;3.90;;;;;;;23.47;77.13;94583.59;4906229;29;20156;-78
2023/05/29 04:39:57;;;;;;;4.40;4.00;;;;;;;23.04;80.92;94600.59;4905413;29;20079;-78
2023/05/29 04:42:24;;;;;;;3.58;3.28;;;;;;;22.92;82.05;94593.91;4922326;29;20822;-78
2023/05/29 04:44:52;;;;;;;4.57;3.60;;;;;;;22.55;83.27;94599.16;4923488;29;20794;-79
2023/05/29 04:47:18;;;;;;;4.15;3.75;;;;;;;23.24;76.84;94586.66;4904315;29;20449;-80
2023/05/29 04:49:48;;;;;;;4.85;3.60;;;;;;;23.35;76.59;94603.34;4883245;29;20035;-78
2023/05/29 04:52:15;;;;;;;4.15;3.75;;;;;;;23.73;72.81;94602.97;4904215;29;20032;-78
2023/05/29 04:54:40;;;;;;;5.78;3.90;;;;;;;23.76;70.51;94593.75;4906152;29;20028;-80
2023/05/29 04:57:05;;;;;;;5.25;3.92;;;;;;;23.67;71.27;94597.94;4904702;29;20028;-79
2023/05/29 04:59:31;;;;;;;4.60;3.75;;;;;;;23.35;71.36;94609.44;4922421;29;20106;-80
2023/05/29 05:01:56;;;;;;;3.78;3.47;;;;;;;23.87;70.55;94612.03;4905960;29;20437;-79
2023/05/29 05:04:22;;;;;;;6.53;3.90;;;;;;;24.45;69.11;94612.66;4903891;29;20031;-79
2023/05/29 05:06:47;;;;;;;3.65;3.30;;;;;;;24.50;66.18;94615.28;4890277;29;20027;-79
2023/05/29 05:09:12;;;;;;;4.63;2.83;;;;;;;24.85;63.73;94609.22;4920897;29;20530;-82
2023/05/29 05:11:38;;;;;;;3.15;2.90;;;;;;;25.74;59.02;94613.72;4923121;29;20028;-80
2023/05/29 05:14:03;;;;;;;3.05;2.75;;;;;;;25.93;57.31;94617.31;4888363;29;20602;-78
2023/05/29 05:16:29;;;;;;;3.78;3.13;;;;;;;22.25;72.17;94607.63;4905751;29;20027;-77
2023/05/29 05:18:54;;;;;;;3.47;3.10;;;;;;;24.51;64.09;94595.69;4905475;29;20047;-78
2023/05/29 05:21:20;;;;;;;3.33;3.03;;;;;;;25.72;59.33;94623.81;4904746;29;20502;-80
2023/05/29 05:23:46;;;;;;;4.32;2.83;;;;;;;25.58;59.13;94619.09;4922842;29;20026;-80
2023/05/29 05:26:11;;;;;;;3.33;3.05;;;;;;;26.28;56.66;94624.31;4887933;29;20429;-81
2023/05/29 05:28:36;;;;;;;5.07;2.92;;;;;;;26.83;56.58;94625.75;4906005;29;20028;-80
2023/05/29 05:31:02;;;;;;;4.75;2.45;;;;;;;26.38;56.46;94638.31;4904123;29;20046;-81
2023/05/29 05:33:27;;;;;;;2.58;2.25;;;;;;;26.90;54.03;94624.38;4922918;29;20032;-83
2023/05/29 05:35:53;;;;;;;6.50;2.30;;;;;;;27.18;54.11;94633.41;4904056;29;20055;-76
2023/05/29 05:38:18;;;;;;;3.63;2.30;;;;;;;29.14;48.36;94634.44;4923345;29;20028;-78
2023/05/29 05:40:44;;;;;;;6.32;3.25;;;;;;;29.70;45.82;94634.97;4907419;29;20030;-79
2023/05/29 05:43:10;;;;;;;10.00;3.25;;;;;;;29.72;47.68;94638.16;4922245;29;20024;-79
2023/05/29 05:45:37;;;;;;;13.35;3.42;;;;;;;29.91;46.57;94635.38;4923776;29;20035;-78
2023/05/29 05:48:03;;;;;;;3.28;2.70;;;;;;;30.75;45.87;94636.44;4922973;29;20067;-77
2023/05/29 05:50:29;;;;;;;5.70;3.60;;;;;;;31.24;44.37;94637.41;4924999;29;20580;-77
2023/05/29 05:52:55;;;;;;;4.55;3.38;;;;;;;31.13;44.38;94623.47;4923240;29;20103;-77
2023/05/29 05:55:20;;;;;;;3.50;3.20;;;;;;;31.76;43.10;94630.34;4924697;29;20023;-79
2023/05/29 05:57:45;;;;;;;4.93;2.85;;;;;;;31.73;41.53;94634.44;4923688;29;20442;-82
2023/05/29 06:00:12;;;;;;;3.08;2.83;;;;;;;30.62;43.56;94636.50;4920989;29;20046;-78
2023/05/29 06:02:38;;;;;;;3.03;2.35;;;;;;;31.17;42.76;94631.69;4923774;29;20032;-77
2023/05/29 06:05:06;;;;;;;2.60;2.40;;;;;;;32.11;41.39;94626.66;4918153;29;20042;-77
2023/05/29 06:07:32;;;;;;;2.63;2.42;;;;;;;32.23;40.67;94629.53;4922940;29;20840;-77
2023/05/29 06:09:57;;;;;;;2.63;2.43;;;;;;;32.37;40.32;94630.16;4917706;29;20043;-78
2023/05/29 06:12:24;;;;;;;3.67;2.50;;;;;;;32.71;38.88;94632.09;4924392;29;20431;-79
2023/05/29 06:14:49;;;;;;;3.00;2.37;;;;;;;33.10;38.14;94627.63;4905516;29;20414;-78
2023/05/29 06:17:15;;;;;;;2.92;2.63;;;;;;;33.05;38.83;94638.50;4922883;29;20287;-77
2023/05/29 06:19:40;;;;;;;2.50;2.30;;;;;;;33.31;37.64;94636.56;4923717;29;20046;-77
2023/05/29 06:22:06;;;;;;;4.53;2.75;;;;;;;33.05;37.82;94627.75;4917753;29;20055;-78
2023/05/29 06:24:31;;;;;;;3.58;3.28;;;;;;;32.21;39.33;94621.00;4920844;29;20024;-78
2023/05/29 06:26:56;;;;;;;4.40;2.78;;;;;;;29.75;45.17;94626.06;4916940;29;20529;-78
2023/05/29 06:29:22;;;;;;;3.05;2.85;;;;;;;27.72;48.64;94622.41;4922907;29;20032;-78
2023/05/29 06:31:47;;;;;;;2.85;2.55;;;;;;;27.08;53.04;94617.53;4921153;29;20048;-78
2023/05/29 06:34:13;;;;;;;3.45;2.60;;;;;;;27.15;52.42;94620.66;4907445;29;20166;-78
2023/05/29 06:36:40;;;;;;;2.50;2.30;;;;;;;27.33;51.42;94619.13;4922210;29;20031;-81
2023/05/29 06:39:05;;;;;;;5.00;2.60;;;;;;;27.17;51.61;94616.63;4864093;29;1223544;-81
2023/05/29 06:41:31;;;;;;;3.40;2.47;;;;;;;30.64;45.56;94615.59;4917557;29;20054;-77
2023/05/29 06:43:56;;;;;;;2.50;2.35;;;;;;;32.48;40.32;94619.91;4923310;29;20036;-80
2023/05/29 06:46:21;;;;;;;3.33;2.45;;;;;;;32.91;40.38;94616.44;4918230;29;20032;-78
2023/05/29 06:48:49;;;;;;;2.88;2.22;;;;;;;33.18;40.18;94616.06;4919159;29;20039;-76
2023/05/29 06:51:15;;;;;;;4.05;2.40;;;;;;;28.81;47.20;94617.66;4924434;29;20467;-81
2023/05/29 06:53:41;;;;;;;2.88;2.60;;;;;;;28.46;48.66;94623.53;4921902;29;20032;-77
2023/05/29 06:56:07;;;;;;;4.82;3.10;;;;;;;26.53;52.17;94627.56;4924821;29;20082;-78
2023/05/29 06:58:33;;;;;;;4.70;3.03;;;;;;;26.82;54.13;94624.16;4923887;29;20032;-78
2023/05/29 07:00:59;;;;;;;3.35;2.60;;;;;;;27.03;54.86;94612.28;4923497;29;20028;-78
2023/05/29 07:03:27;;;;;;;7.95;2.80;;;;;;;26.65;56.13;94620.03;4907178;29;20028;-78
2023/05/29 07:05:53;;;;;;;2.67;2.45;;;;;;;27.03;56.05;94621.06;4905296;29;20990;-76
2023/05/29 07:08:19;;;;;;;4.22;3.20;;;;;;;26.60;56.49;94622.72;4924185;29;20024;-77
2023/05/29 07:10:44;;;;;;;2.90;2.70;;;;;;;27.20;54.32;94623.25;4922523;29;20066;-77
2023/05/29 07:13:13;;;;;;;4.97;3.22;;;;;;;27.34;53.99;94626.03;4907650;29;20115;-77
2023/05/29 07:15:38;;;;;;;2.80;2.60;;;;;;;26.62;56.79;94633.06;4923702;29;20134;-77
2023/05/29 07:18:04;;;;;;;5.20;3.03;;;;;;;25.72;59.02;94629.91;4922771;29;20525;-77
2023/05/29 07:20:29;;;;;;;4.35;3.15;;;;;;;26.24;61.10;94618.75;4924466;29;20036;-77
2023/05/29 07:22:55;;;;;;;3.35;2.97;;;;;;;26.01;58.73;94619.38;4921207;29;20487;-77
2023/05/29 07:25:20;;;;;;;2.90;2.65;;;;;;;26.57;58.87;94614.53;4922982;29;20403;-77
2023/05/29 07:27:46;;;;;;;4.20;3.85;;;;;;;26.55;56.66;94619.34;4921907;29;20035;-76
2023/05/29 07:30:12;;;;;;;3.42;2.78;;;;;;;25.65;56.49;94614.28;4924617;29;20129;-77
2023/05/29 07:32:37;;;;;;;3.17;2.75;;;;;;;25.34;59.00;94617.28;4922327;29;20050;-76
2023/05/29 07:35:03;;;;;;;4.63;2.80;;;;;;;25.34;60.42;94622.59;4923977;29;20024;-77
2023/05/29 07:37:30;;;;;;;3.95;2.55;;;;;;;25.23;61.90;94608.59;4923178;29;20489;-77
2023/05/29 07:39:55;;;;;;;3.13;2.72;;;;;;;24.59;65.15;94609.19;4922545;29;20509;-78
2023/05/29 07:42:20;;;;;;;2.70;2.45;;;;;;;24.12;67.88;94612.09;4924420;29;20055;-76
2023/05/29 07:44:47;;;;;;;3.08;2.88;;;;;;;24.37;68.34;94623.78;4921712;29;20083;-76
2023/05/29 07:47:13;;;;;;;3.38;2.25;;;;;;;24.15;64.75;94618.72;4907424;29;20040;-78
2023/05/29 07:49:39;;;;;;;3.20;2.90;;;;;;;24.74;64.40;94612.91;4905096;29;20027;-77
2023/05/29 07:52:04;;;;;;;3.45;2.92;;;;;;;25.45;62.24;94617.00;4906462;29;20406;-79
2023/05/29 07:54:33;;;;;;;3.55;2.80;;;;;;;25.05;58.85;94617.09;4922352;29;20536;-76
2023/05/29 07:57:09;;;;;;;2.92;2.72;;;;;;;25.89;61.66;94616.28;4889908;29;20402;-77
2023/05/29 07:59:36;;;;;;;3.00;2.80;;;;;;;25.56;61.90;94615.09;4923485;29;20047;-77
2023/05/29 08:02:03;;;;;;;2.92;2.47;;;;;;;25.86;61.92;94620.28;4900757;29;20111;-79
2023/05/29 08:04:28;;;;;;;3.72;2.55;;;;;;;24.34;61.53;94609.19;4914642;29;20039;-77
2023/05/29 08:06:54;;;;;;;2.65;2.45;;;;;;;24.24;66.93;94621.66;4904079;29;20043;-77
2023/05/29 08:09:20;;;;;;;2.78;2.50;;;;;;;23.77;70.87;94622.56;4923988;29;20040;-77
2023/05/29 08:11:46;;;;;;;2.80;2.60;;;;;;;23.84;71.43;94617.03;4888399;29;20028;-77
2023/05/29 08:14:13;;;;;;;2.75;2.47;;;;;;;23.91;70.89;94613.09;4905389;29;20035;-77
2023/05/29 08:16:38;;;;;;;4.38;2.60;;;;;;;23.84;72.99;94609.91;4906232;29;20024;-77
2023/05/29 08:19:04;;;;;;;3.53;2.80;;;;;;;23.36;75.34;94615.53;4921656;29;20051;-79
2023/05/29 08:21:31;;;;;;;3.38;2.78;;;;;;;22.65;74.44;94615.09;4923608;29;20028;-76
2023/05/29 08:23:57;;;;;;;2.45;2.25;;;;;;;22.09;81.68;94627.03;4904510;29;20027;-76
2023/05/29 08:26:22;;;;;;;2.72;2.45;;;;;;;22.20;79.74;94623.44;4923557;29;20044;-76
2023/05/29 08:28:48;;;;;;;7.95;2.60;;;;;;;21.85;83.88;94630.97;4921540;29;20042;-76
2023/05/29 08:31:13;;;;;;;3.63;3.22;;;;;;;21.64;91.02;94634.47;4921863;29;20039;-77
2023/05/29 08:33:39;;;;;;;3.92;3.17;;;;;;;21.91;90.24;94630.03;4922318;29;20110;-77
2023/05/29 08:36:05;;;;;;;3.30;2.72;;;;;;;21.89;83.26;94626.84;4922180;29;20673;-76
2023/05/29 08:38:30;;;;;;;2.65;2.42;;;;;;;21.92;84.30;94623.72;4923091;29;20047;-76
2023/05/29 08:40:59;;;;;;;3.03;2.83;;;;;;;22.10;87.13;94618.06;4901084;29;20028;-75
2023/05/29 08:43:31;;;;;;;6.18;3.05;;;;;;;22.27;86.89;94610.84;4905674;29;20410;-81
2023/05/29 08:46:00;;;;;;;4.13;3.10;;;;;;;22.66;88.38;94615.91;4887932;29;20071;-76
2023/05/29 08:48:25;;;;;;;;;;;;;;;23.08;83.52;94608.78;4894301;29;20101;-77
2023/05/29 08:50:52;;;;;;;2.73;2.30;;;;;;;23.35;82.58;94609.44;4905082;29;20365;-77
2023/05/29 08:53:19;;;;;;;5.07;2.58;;;;;;;22.88;75.06;94608.66;4922132;29;20268;-77
2023/05/29 08:55:48;;;;;;;2.53;2.33;;;;;;;22.74;79.55;94610.16;4906407;29;20110;-76
2023/05/29 08:58:17;;;;;;;3.47;2.13;;;;;;;23.18;78.88;94600.13;4904251;29;20411;-80
2023/05/29 09:00:43;;;;;;;;;;;;;;;23.51;70.98;94597.09;4906411;29;20031;-78
2023/05/29 09:03:09;;;;;;;4.57;2.30;;;;;;;24.08;74.92;94602.28;4898727;29;20523;-76
2023/05/29 09:05:39;;;;;;;3.05;2.42;;;;;;;23.54;71.53;94597.38;4912089;29;20032;-78
2023/05/29 09:08:05;;;;;;;2.28;2.08;;;;;;;23.95;69.21;94597.50;4900944;29;21114;-77
2023/05/29 09:10:31;;;;;;;3.45;2.45;;;;;;;24.25;70.95;94592.25;4900264;29;20122;-76
2023/05/29 09:12:57;;;;;;;2.42;2.30;;;;;;;24.46;69.97;94583.25;4910900;29;20067;-77
2023/05/29 09:15:23;;;;;;;4.82;2.42;;;;;;;23.99;65.60;94583.47;4899775;29;20032;-77
2023/05/29 09:17:54;;;;;;;2.47;2.28;;;;;;;23.92;64.15;94585.56;4904313;29;20448;-78
2023/05/29 09:20:23;;;;;;;2.88;2.60;;;;;;;24.96;72.38;94579.75;4918839;29;20028;-76
2023/05/29 09:22:56;;;;;;;2.50;2.28;;;;;;;23.88;69.73;94581.06;4898776;29;20775;-81
2023/05/29 09:25:27;;;;;;;2.72;2.53;;;;;;;24.02;68.38;94579.47;4907363;29;20035;-79
2023/05/29 09:27:57;;;;;;;2.78;2.58;;;;;;;23.17;71.83;94567.59;4905781;29;20032;-76
2023/05/29 09:30:40;;;;;;;2.80;2.33;;;;;;;23.14;73.83;94569.97;4877452;29;20039;-77
2023/05/29 09:33:10;;;;;;;2.33;2.13;;;;;;;23.09;69.96;94573.38;4907018;29;20032;-77
2023/05/29 09:35:44;;;;;;;4.82;2.70;;;;;;;23.37;71.16;94564.25;4909034;29;20080;-80
2023/05/29 09:38:11;;;;;;;2.60;2.40;;;;;;;23.01;67.87;94566.75;4923163;29;20028;-77
2023/05/29 09:40:38;;;;;;;4.38;2.55;;;;;;;23.15;71.16;94561.00;4904674;29;20054;-76
2023/05/29 09:43:07;;;;;;;3.47;2.60;;;;;;;22.96;66.42;94561.41;4922649;29;20028;-78
2023/05/29 09:45:33;;;;;;;2.53;2.33;;;;;;;23.75;69.37;94561.22;4906288;29;20406;-77
2023/05/29 09:47:58;;;;;;;2.70;2.50;;;;;;;23.38;66.99;94557.88;4900382;29;20040;-76
2023/05/29 09:50:28;;;;;;;4.03;2.45;;;;;;;22.76;66.96;94558.69;4898730;29;20428;-77
2023/05/29 09:52:57;;;;;;;2.80;2.60;;;;;;;22.56;72.91;94553.25;4897532;29;20020;-76
2023/05/29 09:55:25;;;;;;;3.17;2.42;;;;;;;22.35;76.19;94556.78;4921532;29;20110;-77
2023/05/29 09:57:53;;;;;;;3.47;2.78;;;;;;;21.79;77.74;94550.22;4907186;29;20524;-76
2023/05/29 10:00:19;;;;;;;2.97;2.72;;;;;;;21.90;79.26;94554.56;4907305;29;20522;-76
2023/05/29 10:02:45;;;;;;;5.05;2.85;;;;;;;21.83;84.36;94557.38;4924652;29;20840;-77
2023/05/29 10:05:11;;;;;;;4.07;2.63;;;;;;;21.79;84.38;94558.16;4908576;29;20040;-77
2023/05/29 10:07:37;;;;;;;3.58;3.20;;;;;;;21.83;84.77;94553.97;4888828;29;20063;-78
2023/05/29 10:10:05;;;;;;;3.15;2.85;;;;;;;21.24;84.75;94556.50;4900141;29;20040;-79
2023/05/29 10:12:38;;;;;;;3.22;2.67;;;;;;;21.34;83.54;94569.81;4906100;29;20015;-76
2023/05/29 10:15:14;;;;;;;4.40;2.65;;;;;;;21.17;88.33;94563.00;4907758;29;20117;-79
2023/05/29 10:17:48;;;;;;;2.97;2.72;;;;;;;20.76;90.21;94556.41;4923364;29;20095;-76
2023/05/29 10:20:15;;;;;;;5.22;2.88;;;;;;;20.82;93.93;94558.06;4922184;29;20043;-76
2023/05/29 10:22:44;;;;;;;3.70;2.45;;;;;;;20.98;89.51;94554.59;4908390;29;20043;-76
2023/05/29 10:25:10;;;;;;;2.80;2.60;;;;;;;20.84;88.29;94555.97;4906179;29;20473;-75
2023/05/29 10:27:36;;;;;;;4.40;2.85;;;;;;;21.03;91.63;94559.91;4925207;29;20514;-77
2023/05/29 10:30:25;;;;;;;6.40;2.53;;;;;;;21.16;95.63;94564.06;4906664;29;20031;-75
2023/05/29 10:33:22;;;;;;;5.55;2.70;;;;;;;20.58;95.22;94564.59;4915078;29;20116;-76
2023/05/29 10:36:04;;;;;;;4.68;2.75;;;;;;;20.57;97.06;94565.63;4915597;29;20542;-75
2023/05/29 10:38:30;;;;;;;4.75;2.95;;;;;;;20.47;96.69;94561.00;4901290;29;20418;-78
2023/05/29 10:40:56;;;;;;;7.82;4.40;;;;;;;20.12;100.00;94566.50;4887749;29;20047;-80
2023/05/29 10:43:34;;;;;;;9.43;5.15;;;;;;;20.16;100.00;94569.44;4922178;29;20044;-80
2023/05/29 10:46:03;;;;;;;13.88;4.95;;;;;;;20.00;100.00;94613.09;4907122;29;20034;-79
2023/05/29 10:48:40;;;;;;;8.77;5.82;;;;;;;19.90;100.00;94633.97;4892033;29;20032;-79
2023/05/29 10:51:10;;;;;;;7.50;4.80;;;;;;;19.86;100.00;94661.75;4889682;29;20031;-76
2023/05/29 10:53:40;;;;;;;9.55;3.67;;;;;;;19.25;100.00;94594.88;4907050;29;20024;-81
2023/05/29 10:56:08;;;;;;;4.50;3.05;;;;;;;18.85;100.00;94575.66;4906866;29;20032;-76
2023/05/29 10:58:33;;;;;;;5.78;4.45;;;;;;;18.19;100.00;94617.94;4919971;29;20039;-77
2023/05/29 11:00:59;;;;;;;4.43;3.90;;;;;;;18.48;100.00;94629.38;4914070;29;20040;-81
2023/05/29 11:03:29;;;;;;;5.40;4.22;;;;;;;18.85;100.00;94636.00;4912999;29;20016;-78
2023/05/29 11:05:58;;;;;;;5.13;4.53;;;;;;;18.94;100.00;94639.91;4907537;29;20057;-80
2023/05/29 11:08:46;;;;;;;6.95;3.85;;;;;;;18.90;100.00;94650.06;4919500;29;20031;-83
2023/05/29 11:11:13;;;;;;;5.72;4.43;;;;;;;19.14;100.00;94658.69;4902856;29;20039;-82
2023/05/29 11:13:40;;;;;;;6.90;5.30;;;;;;;19.46;100.00;94746.63;4904282;29;20039;-82
2023/05/29 11:16:25;;;;;;;6.13;5.10;;;;;;;19.66;100.00;94729.69;4917160;29;20958;-82
2023/05/29 11:18:51;;;;;;;4.28;3.88;;;;;;;19.72;100.00;94673.56;4900528;29;20130;-85
2023/05/29 11:21:24;;;;;;;4.82;4.32;;;;;;;20.02;100.00;94668.88;4886622;29;20070;-82
2023/05/29 11:23:53;;;;;;;7.25;4.95;;;;;;;20.29;100.00;94706.72;4907499;29;20039;-81
2023/05/29 11:26:23;;;;;;;8.10;4.38;;;;;;;20.08;100.00;94670.56;4905452;29;20038;-84
2023/05/29 11:28:48;;;;;;;4.50;4.10;;;;;;;19.97;100.00;94630.13;4904211;29;20044;-81
2023/05/29 11:31:16;;;;;;;4.20;3.88;;;;;;;19.92;100.00;94624.00;4895956;29;20087;-83
2023/05/29 11:33:47;;;;;;;4.40;3.97;;;;;;;19.76;100.00;94580.06;4903140;29;20024;-82
2023/05/29 11:36:14;;;;;;;5.18;4.47;;;;;;;19.90;100.00;94578.75;4923102;29;20028;-81
2023/05/29 11:38:40;;;;;;;3.97;3.67;;;;;;;19.79;100.00;94587.47;4921105;29;20062;-80
2023/05/29 11:41:05;;;;;;;4.38;3.97;;;;;;;19.51;100.00;94579.63;4906638;29;20032;-81
2023/05/29 11:43:31;;;;;;;7.43;4.00;;;;;;;19.64;100.00;94587.22;4920506;29;20024;-79
2023/05/29 11:45:56;;;;;;;4.28;3.85;;;;;;;19.89;100.00;94580.56;4924058;29;20027;-77
2023/05/29 11:48:23;;;;;;;7.40;4.05;;;;;;;19.81;100.00;94640.63;4922985;29;20020;-77
2023/05/29 11:50:48;;;;;;;5.55;3.45;;;;;;;19.91;100.00;94606.63;4922188;29;20493;-76
2023/05/29 11:53:14;;;;;;;3.92;3.55;;;;;;;19.66;100.00;94587.78;4905515;29;20035;-74
2023/05/29 11:55:39;;;;;;;5.03;4.63;;;;;;;19.71;100.00;94603.66;4921919;29;20024;-76
2023/05/29 11:58:05;;;;;;;4.88;4.47;;;;;;;19.75;100.00;94605.56;4906540;29;20863;-74
2023/05/29 12:00:36;;;;;;;4.53;4.10;;;;;;;20.00;100.00;94586.81;4900581;29;20134;-75
2023/05/29 12:03:04;;;;;;;2.88;2.67;;;;;;;20.17;100.00;94549.97;4904069;29;20027;-73
2023/05/29 12:05:45;;;;;;;3.80;3.50;;;;;;;20.02;100.00;94542.66;4909124;29;20034;-75
2023/05/29 12:08:10;;;;;;;3.85;3.55;;;;;;;20.09;100.00;94579.31;4897125;29;20696;-73
2023/05/29 12:10:36;;;;;;;3.67;3.38;;;;;;;20.15;100.00;94573.09;4913849;29;20035;-75
2023/05/29 12:13:01;;;;;;;4.30;3.70;;;;;;;20.12;100.00;94586.72;4912429;29;20422;-74
2023/05/29 12:15:27;;;;;;;3.17;2.97;;;;;;;20.46;100.00;94562.84;4909405;29;20221;-74
2023/05/29 12:17:54;;;;;;;3.28;3.00;;;;;;;20.57;100.00;94566.41;4900687;29;20024;-73
2023/05/29 12:20:22;;;;;;;3.58;2.90;;;;;;;20.14;100.00;94560.97;4915102;29;20027;-76
2023/05/29 12:22:48;;;;;;;3.75;2.97;;;;;;;20.31;100.00;94559.19;4911576;29;20463;-73
2023/05/29 12:25:16;;;;;;;3.17;2.90;;;;;;;20.43;100.00;94563.31;4917210;29;20036;-73
2023/05/29 12:27:46;;;;;;;11.90;3.03;;;;;;;20.23;100.00;94559.53;4916282;29;20040;-79
2023/05/29 12:30:20;;;;;;;3.35;3.08;;;;;;;20.19;100.00;94556.63;4915812;29;20024;-74
2023/05/29 12:32:47;;;;;;;3.55;3.10;;;;;;;20.24;100.00;94555.88;4905695;29;20032;-73
2023/05/29 12:35:15;;;;;;;5.25;3.10;;;;;;;20.30;100.00;94544.44;4912437;29;20071;-78
2023/05/29 12:38:00;;;;;;;2.70;2.50;;;;;;;20.33;100.00;94544.75;4910605;29;20032;-74
2023/05/29 12:40:28;;;;;;;3.38;3.17;;;;;;;20.70;100.00;94538.94;4918999;29;20052;-73
2023/05/29 12:43:01;;;;;;;5.57;2.97;;;;;;;20.93;100.00;94536.09;4912239;29;20051;-74
2023/05/29 12:45:28;;;;;;;3.80;2.60;;;;;;;21.57;100.00;94523.94;4913059;29;20032;-74
2023/05/29 12:47:56;;;;;;;2.30;2.10;;;;;;;21.89;95.73;94522.16;4922391;29;20513;-76
2023/05/29 12:50:21;;;;;;;2.60;2.40;;;;;;;21.78;95.83;94525.69;4931342;28;20047;-74
2023/05/29 12:53:16;;;;;;;3.90;2.55;;;;;;;21.82;91.23;94526.00;4914927;29;20606;-74
2023/05/29 12:55:43;;;;;;;3.28;2.45;;;;;;;21.69;93.09;94521.13;4917681;29;20044;-73
2023/05/29 12:58:10;;;;;;;4.25;2.40;;;;;;;21.67;86.41;94517.97;4920367;29;20597;-77
2023/05/29 13:00:38;;;;;;;3.67;2.40;;;;;;;21.49;90.64;94521.72;4886145;29;20095;-73
2023/05/29 13:03:04;;;;;;;2.60;2.40;;;;;;;21.48;93.01;94522.78;4920264;29;20068;-74
2023/05/29 13:05:30;;;;;;;3.60;2.70;;;;;;;21.06;92.27;94525.19;4911292;29;20549;-74
2023/05/29 13:07:55;;;;;;;3.17;2.78;;;;;;;21.18;98.47;94525.09;4915018;29;20119;-74
2023/05/29 13:10:21;;;;;;;3.20;2.90;;;;;;;21.06;94.60;94524.41;4887760;29;20051;-74
2023/05/29 13:12:53;;;;;;;3.65;2.50;;;;;;;20.73;99.75;94526.09;4903552;29;20119;-75
2023/05/29 13:15:19;;;;;;;7.78;3.40;;;;;;;20.21;100.00;94520.34;4914909;29;20054;-74
2023/05/29 13:17:44;;;;;;;3.60;3.30;;;;;;;20.02;100.00;94537.41;4916427;29;20119;-75
2023/05/29 13:20:11;;;;;;;4.57;3.25;;;;;;;19.69;100.00;94532.91;4917118;29;20046;-74
2023/05/29 13:22:42;;;;;;;3.08;2.42;;;;;;;19.61;100.00;94535.13;4902723;29;20043;-74
2023/05/29 13:25:11;;;;;;;2.83;2.38;;;;;;;19.79;100.00;94545.44;4915894;29;20455;-75
2023/05/29 13:27:38;;;;;;;2.28;1.65;;;;;;;19.85;100.00;94541.84;4911333;29;20127;-74
2023/05/29 13:30:04;;;;;;;2.25;1.45;;;;;;;19.94;100.00;94528.06;4902984;29;20038;-75
2023/05/29 13:32:30;;;;;;;1.50;1.40;;;;;;;20.24;100.00;94535.63;4906515;29;20086;-75
2023/05/29 13:34:56;;;;;;;8.43;1.60;;;;;;;20.47;100.00;94534.69;4913877;29;20028;-77
2023/05/29 13:37:21;;;;;;;3.88;2.00;;;;;;;20.43;100.00;94539.63;4907174;29;20043;-77
2023/05/29 13:39:47;;;;;;;2.22;1.90;;;;;;;20.22;100.00;94532.47;4905225;29;20047;-76
2023/05/29 13:42:12;;;;;;;2.72;2.30;;;;;;;20.05;100.00;94525.59;4900961;29;20036;-75
2023/05/29 13:44:38;;;;;;;3.90;2.40;;;;;;;20.47;100.00;94532.06;4901261;29;20024;-75
2023/05/29 13:47:05;;;;;;;2.83;2.63;;;;;;;20.44;100.00;94525.44;4918717;29;20027;-75
2023/05/29 13:49:31;;;;;;;3.58;2.28;;;;;;;20.61;100.00;94525.41;4924034;29;20086;-77
2023/05/29 13:51:56;;;;;;;3.75;2.78;;;;;;;20.24;100.00;94529.56;4917287;29;20484;-77
2023/05/29 13:54:22;;;;;;;3.60;2.47;;;;;;;20.21;100.00;94519.53;4914228;29;20543;-81
2023/05/29 13:56:48;;;;;;;2.97;2.65;;;;;;;20.42;100.00;94522.25;4911060;29;20036;-74
2023/05/29 13:59:14;;;;;;;2.90;2.65;;;;;;;20.24;100.00;94522.50;4914199;29;20106;-74
2023/05/29 14:01:40;;;;;;;3.10;2.58;;;;;;;20.36;100.00;94528.47;4923912;29;20023;-75
2023/05/29 14:04:05;;;;;;;2.95;2.28;;;;;;;20.34;100.00;94530.56;4920883;29;20024;-75
2023/05/29 14:06:32;;;;;;;2.65;2.40;;;;;;;20.71;100.00;94519.50;4916781;29;20036;-75
2023/05/29 14:08:58;;;;;;;2.60;2.40;;;;;;;20.60;100.00;94517.75;4904585;29;20063;-75
2023/05/29 14:11:23;;;;;;;2.72;2.33;;;;;;;20.54;100.00;94511.63;4924487;29;20806;-75
2023/05/29 14:13:49;;;;;;;3.53;2.35;;;;;;;20.71;100.00;94511.59;4922008;29;20118;-75
2023/05/29 14:16:15;;;;;;;3.63;2.50;;;;;;;20.58;100.00;94506.69;4925239;29;20606;-74
2023/05/29 14:18:41;;;;;;;3.42;2.33;;;;;;;20.71;100.00;94512.38;4920630;29;20055;-75
2023/05/29 14:21:08;;;;;;;3.00;2.80;;;;;;;20.81;100.00;94512.50;4907785;29;20082;-75
2023/05/29 14:23:34;;;;;;;2.95;2.40;;;;;;;20.76;100.00;94501.91;4921884;29;20043;-75
2023/05/29 14:25:59;;;;;;;3.47;3.17;;;;;;;20.52;100.00;94513.69;4918541;29;20039;-75
2023/05/29 14:28:25;;;;;;;2.60;2.40;;;;;;;20.28;100.00;94515.75;4915936;29;20414;-76
2023/05/29 14:30:50;;;;;;;5.10;2.60;;;;;;;20.27;100.00;94513.34;4922278;29;20505;-76
2023/05/29 14:33:16;;;;;;;2.15;2.05;;;;;;;20.39;100.00;94521.94;4924575;29;20487;-75
2023/05/29 14:35:41;;;;;;;2.20;2.00;;;;;;;20.36;100.00;94507.44;4922163;29;20078;-77
2023/05/29 14:38:06;;;;;;;2.17;2.00;;;;;;;20.59;100.00;94505.63;4915259;29;20160;-75
2023/05/29 14:40:33;;;;;;;2.92;1.98;;;;;;;20.44;100.00;94500.97;4912994;29;20785;-77
2023/05/29 14:42:59;;;;;;;1.90;1.80;;;;;;;20.46;100.00;94501.50;4924843;29;20053;-75
2023/05/29 14:45:26;;;;;;;2.45;1.90;;;;;;;20.48;100.00;94500.22;4921720;29;20024;-75
2023/05/29 14:47:52;;;;;;;3.35;2.20;;;;;;;20.48;100.00;94502.84;4924602;29;20036;-74
2023/05/29 14:50:17;;;;;;;2.00;1.77;;;;;;;20.41;100.00;94506.72;4922545;29;20482;-75
2023/05/29 14:52:43;;;;;;;2.00;1.90;;;;;;;20.45;100.00;94503.34;4919119;29;20861;-83
2023/05/29 14:55:08;;;;;;;1.95;1.67;;;;;;;20.37;100.00;94498.50;4922464;29;20059;-83
2023/05/29 14:57:34;;;;;;;2.33;2.13;;;;;;;20.45;100.00;94497.31;4902978;29;20628;-74
2023/05/29 15:00:00;;;;;;;2.33;2.13;;;;;;;20.49;100.00;94486.03;4919423;29;20135;-79
2023/05/29 15:02:26;;;;;;;1.80;1.70;;;;;;;20.39;100.00;94490.34;4895725;29;20425;-75
2023/05/29 15:04:51;;;;;;;3.10;2.17;;;;;;;20.52;100.00;94507.66;4910098;29;20020;-75